Weather observations for the past three days for
Ciudad Juarez International
Metric (Imperial)
Date Time (cdt) Wind (kph) Vis. (km) Weather Sky Cond. Temperature (ºC) Relative Humidity Wind Chill (°C) Heat Index (°C) Pressure Precipitation (cm)
Air Dwpt 6 hour altimeter (cm) sea level (mb) 1 hr 3 hr 6 hr
Max. Min.
30 21:40 Calm 16.09 Clear SKC 33 7 20% 31 76.15 1001.2
30 20:40 E 6 16.09 Clear SKC 35 6 16% 33 76.12 0.0
30 19:40 NE 6 16.09 A Few Clouds FEW050 FEW200 36 6 16% 34 76.12 0.0
30 18:40 NE 11 16.09 A Few Clouds FEW050 FEW200 37 7 16% 35 76.12 1000.6
30 17:40 NW 9 16.09 A Few Clouds FEW050 FEW200 37 8 17% 35 76.17 0.0
30 16:40 SW 9 16.09 Partly Cloudy SCT050 38 8 16% 36 76.23 0.0
30 15:40 N 7 16.09 A Few Clouds FEW050 37 9 18% 35 76.3 1002.9
30 14:48 SW 9 16.09 A Few Clouds FEW050 37 10 19% 35 76.38 0.0
30 13:40 SW 7 16.09 A Few Clouds FEW200 35 11 23% 33 76.43 0.0
30 12:40 S 9 16.09 Clear SKC 34 11 24% 32 76.5 1005.0
30 11:40 S 11 16.09 Clear SKC 31 11 29% 30 76.53 0.0
30 10:40 SW 7 16.09 Clear SKC 29 11 33% 28 76.53 0.0
30 09:44 S 11 16.09 A Few Clouds FEW050 28 9 30% 27 76.53 1005.9
30 08:42 Calm 16.09 Partly Cloudy SCT050 25 10 39% 26 76.5 0.0
30 06:40 Calm 12.87 A Few Clouds FEW100 25 9 36% 26 76.45 1004.8
29 21:40 SE 9 16.09 Clear SKC 34 9 21% 32 76.3 1003.0
29 20:40 E 13 16.09 Clear SKC 34 10 23% 32 76.25 0.0
29 19:40 SE 15 16.09 A Few Clouds FEW050 35 10 22% 33 76.28 0.0
29 18:40 SE 15 16.09 A Few Clouds FEW050 37 8 17% 35 76.28 1002.6
29 17:40 SE 7 16.09 A Few Clouds FEW050TCU 37 9 18% 35 76.33 0.0
29 16:40 NE 13 16.09 A Few Clouds FEW050TCU 37 8 17% 35 76.38 0.0
29 15:40 NE 6 16.09 A Few Clouds FEW050TCU 36 8 18% 34 76.45 1005.1
29 14:41 SE 9 16.09 Partly Cloudy SCT050 36 9 19% 34 76.53 0.0
29 13:40 E 9 16.09 A Few Clouds FEW050 35 11 23% 33 76.61 0.0
29 12:40 E 7 16.09 A Few Clouds FEW050 34 13 28% 33 76.68 1007.2
29 11:40 E 9 16.09 A Few Clouds FEW050 32 13 31% 31 76.71 0.0
29 10:40 SE 7 16.09 A Few Clouds FEW070 30 13 35% 29 76.73 0.0
29 09:40 E 7 16.09 A Few Clouds FEW070 28 12 37% 27 76.73 1008.1
29 08:41 Calm 16.09 A Few Clouds FEW080 26 12 42% 26 76.71 0.0
29 06:40 Calm 16.09 Clear SKC 25 10 39% 26 76.63 1007.4
28 21:40 Calm 16.09 Clear SKC 33 9 23% 31 76.45 1005.1
28 20:40 E 11 16.09 Partly Cloudy FEW050 SCT200 35 9 20% 33 76.4 0.0
28 19:40 E 13 16.09 A Few Clouds FEW050 FEW200 36 7 17% 34 76.4 0.0
28 18:40 Calm 16.09 A Few Clouds FEW050 FEW200 36 6 16% 34 76.43 1004.6
28 17:40 NE 11 16.09 A Few Clouds FEW050 FEW200 37 7 16% 35 76.48 0.0
28 16:40 E 9 16.09 A Few Clouds FEW050 FEW200 36 7 17% 34 76.53 0.0
28 15:40 E 15 16.09 A Few Clouds FEW050 FEW200 36 8 18% 34 76.63 1007.1
28 14:40 E 11 16.09 A Few Clouds FEW050 37 11 21% 36 76.71 0.0
28 13:40 SE 13 16.09 Clear SKC 35 12 25% 34 76.76 0.0
28 12:40 SE 9 16.09 Clear SKC 34 13 28% 33 76.84 1010.1
28 11:40 E 9 16.09 Clear SKC 31 13 33% 30 76.86 0.0
28 10:40 Calm 16.09 Clear SKC 29 13 37% 28 76.86 0.0
28 09:40 NE 6 16.09 Clear SKC 27 13 42% 27 76.86 1011.6
28 08:40 N 6 16.09 A Few Clouds FEW080 FEW150 26 13 45% 26 76.84 0.0
28 06:40 SE 11 16.09 Mostly Cloudy FEW080 SCT140 BKN250 25 13 47% 26 76.71 1009.0
Date Time (cdt) Wind (kph) Vis. (km) Weather Sky Cond. Air Dwpt Max. Min. Relative Humidity Wind Chill (°C) Heat Index (°C) altimeter (cm) sea level (mb) 1 hr 3 hr 6 hr
6 hour
Temperature (ºC) Pressure Precipitation (cm)